Time;durP1;ratioP1;P1;durP2;ratioP2;P2;SDS_P1;SDS_P2;PMS_P1;PMS_P2;Temp;Humidity;BMP_temperature;BMP_pressure;BME280_temperature;BME280_humidity;BME280_pressure;Samples;Min_cycle;Max_cycle;Signal;HPM_P1;HPM_P2
2023/02/23 00:01:27;;;;;;;4.80;4.40;;;;;;;;;;4480694;28;20165;-57
2023/02/23 00:03:39;;;;;;;5.18;4.68;;;;;;;;;;4479837;28;20064;-57
2023/02/23 00:05:49;;;;;;;5.22;4.30;;;;;;;;;;4479111;28;21245;-57
2023/02/23 00:08:00;;;;;;;4.68;4.20;;;;;;;;;;4480347;28;20035;-57
2023/02/23 00:10:14;;;;;;;4.82;4.43;;;;;;;;;;4477900;28;20038;-57
2023/02/23 00:12:25;;;;;;;0.38;0.38;;;;;;;;;;4477941;28;20037;-57
2023/02/23 00:14:36;;;;;;;0.40;0.40;;;;;;;;;;4475901;28;20050;-58
2023/02/23 00:16:46;;;;;;;4.00;3.60;;;;;;;;;;4479055;28;20042;-57
2023/02/23 00:18:59;;;;;;;5.20;4.70;;;;;;;;;;4479585;28;20023;-58
2023/02/23 00:21:22;;;;;;;0.45;0.45;;;;;;;;;;4479002;28;20113;-57
2023/02/23 00:23:33;;;;;;;0.52;0.52;;;;;;;;;;4480143;28;20042;-58
2023/02/23 00:25:44;;;;;;;2.58;2.38;;;;;;;;;;4476474;28;20093;-57
2023/02/23 00:27:55;;;;;;;4.80;4.40;;;;;;;;;;4471364;28;20196;-57
2023/02/23 00:30:07;;;;;;;4.70;4.30;;;;;;;;;;4478437;28;20167;-59
2023/02/23 00:32:18;;;;;;;4.43;4.03;;;;;;;;;;4479282;28;20042;-57
2023/02/23 00:34:28;;;;;;;3.88;3.50;;;;;;;;;;4478268;28;20054;-57
2023/02/23 00:36:39;;;;;;;3.65;3.35;;;;;;;;;;4481669;28;20033;-57
2023/02/23 00:38:53;;;;;;;3.45;3.15;;;;;;;;;;4477107;28;20534;-60
2023/02/23 00:41:08;;;;;;;3.10;2.80;;;;;;;;;;4488057;28;20045;-58
2023/02/23 00:43:18;;;;;;;3.20;2.80;;;;;;;;;;4479688;28;21575;-58
2023/02/23 00:45:31;;;;;;;3.05;2.83;;;;;;;;;;4478085;28;20581;-58
2023/02/23 00:47:42;;;;;;;3.17;2.88;;;;;;;;;;4478151;28;20050;-57
2023/02/23 00:49:52;;;;;;;3.58;3.00;;;;;;;;;;4472900;28;20069;-58
2023/02/23 00:52:03;;;;;;;3.25;2.95;;;;;;;;;;4478385;28;20133;-58
2023/02/23 00:54:14;;;;;;;3.72;3.33;;;;;;;;;;4481706;28;20050;-59
2023/02/23 00:56:25;;;;;;;3.20;2.80;;;;;;;;;;4482886;28;20088;-58
2023/02/23 00:58:36;;;;;;;3.30;3.00;;;;;;;;;;4488470;28;21743;-57
2023/02/23 01:00:46;;;;;;;3.50;3.20;;;;;;;;;;4478020;28;20039;-58
2023/02/23 01:02:57;;;;;;;3.30;3.00;;;;;;;;;;4476958;28;20705;-59
2023/02/23 01:05:08;;;;;;;3.70;3.17;;;;;;;;;;4478289;28;20043;-57
2023/02/23 01:07:18;;;;;;;3.22;2.92;;;;;;;;;;4479526;28;20636;-58
2023/02/23 01:09:29;;;;;;;3.50;3.20;;;;;;;;;;4497155;28;20045;-58
2023/02/23 01:11:40;;;;;;;3.40;3.10;;;;;;;;;;4481903;28;20049;-59
2023/02/23 01:13:51;;;;;;;3.17;2.88;;;;;;;;;;4480709;28;20140;-58
2023/02/23 01:16:06;;;;;;;3.15;2.85;;;;;;;;;;4481899;28;20053;-58
2023/02/23 01:18:17;;;;;;;3.50;3.20;;;;;;;;;;4482165;28;20170;-58
2023/02/23 01:20:28;;;;;;;2.85;2.63;;;;;;;;;;4490549;28;20715;-58
2023/02/23 01:22:38;;;;;;;3.13;2.83;;;;;;;;;;4496856;28;20046;-58
2023/02/23 01:24:48;;;;;;;3.00;2.70;;;;;;;;;;4480775;28;20628;-58
2023/02/23 01:26:59;;;;;;;3.08;2.78;;;;;;;;;;4489935;28;20073;-58
2023/02/23 01:29:11;;;;;;;3.30;3.00;;;;;;;;;;4482838;28;20077;-59
2023/02/23 01:31:23;;;;;;;3.92;3.55;;;;;;;;;;4483242;28;20034;-58
2023/02/23 01:33:33;;;;;;;4.10;3.70;;;;;;;;;;4481368;28;20672;-58
2023/02/23 01:35:44;;;;;;;4.18;3.78;;;;;;;;;;4480136;28;20108;-59
2023/02/23 01:37:56;;;;;;;4.40;4.00;;;;;;;;;;4481385;28;20042;-59
2023/02/23 01:40:14;;;;;;;4.10;3.78;;;;;;;;;;4475879;28;20134;-58
2023/02/23 01:42:24;;;;;;;4.20;3.80;;;;;;;;;;4479350;28;21047;-58
2023/02/23 01:44:38;;;;;;;4.30;3.90;;;;;;;;;;4498855;28;20097;-58
2023/02/23 01:46:49;;;;;;;4.15;3.72;;;;;;;;;;4489674;28;20402;-58
2023/02/23 01:49:00;;;;;;;4.30;3.90;;;;;;;;;;4481994;28;20034;-58
2023/02/23 01:51:12;;;;;;;4.28;3.88;;;;;;;;;;4483353;28;20023;-58
2023/02/23 01:53:24;;;;;;;4.28;3.88;;;;;;;;;;4484418;28;20045;-58
2023/02/23 01:55:35;;;;;;;4.70;4.30;;;;;;;;;;4482584;28;20030;-58
2023/02/23 01:57:45;;;;;;;4.20;3.80;;;;;;;;;;4480921;28;20042;-58
2023/02/23 01:59:57;;;;;;;4.40;3.80;;;;;;;;;;4490583;28;20036;-58
2023/02/23 02:02:07;;;;;;;4.30;3.90;;;;;;;;;;4481091;28;20120;-58
2023/02/23 02:04:19;;;;;;;4.22;3.83;;;;;;;;;;4478874;28;20061;-59
2023/02/23 02:06:30;;;;;;;4.18;3.78;;;;;;;;;;4481427;28;20579;-58
2023/02/23 02:08:46;;;;;;;4.18;3.78;;;;;;;;;;4480564;28;20531;-58
2023/02/23 02:10:56;;;;;;;4.40;4.00;;;;;;;;;;4474249;28;20058;-58
2023/02/23 02:13:08;;;;;;;4.28;3.65;;;;;;;;;;4479512;28;20049;-58
2023/02/23 02:15:18;;;;;;;3.70;3.40;;;;;;;;;;4481408;28;20205;-57
2023/02/23 02:17:58;;;;;;;3.78;3.47;;;;;;;;;;4480957;28;20053;-58
2023/02/23 02:20:37;;;;;;;3.95;3.40;;;;;;;;;;4440000;28;20265;-58
2023/02/23 02:23:08;;;;;;;3.80;3.40;;;;;;;;;;4494904;28;20045;-58
2023/02/23 02:25:54;;;;;;;3.85;3.55;;;;;;;;;;4480404;28;20617;-58
2023/02/23 02:28:13;;;;;;;3.72;3.42;;;;;;;;;;4439861;28;20092;-58
2023/02/23 02:30:33;;;;;;;3.78;3.47;;;;;;;;;;4477973;28;20782;-59
2023/02/23 02:33:03;;;;;;;3.72;3.42;;;;;;;;;;4481725;28;20034;-58
2023/02/23 02:35:20;;;;;;;4.60;4.13;;;;;;;;;;4481577;28;20034;-59
2023/02/23 02:37:36;;;;;;;4.18;3.78;;;;;;;;;;4496363;28;20627;-58
2023/02/23 02:39:47;;;;;;;4.45;4.05;;;;;;;;;;4480935;28;20058;-58
2023/02/23 02:42:03;;;;;;;4.20;3.80;;;;;;;;;;4482997;28;20039;-58
2023/02/23 02:44:16;;;;;;;4.45;4.05;;;;;;;;;;4489970;28;20073;-58
2023/02/23 02:46:29;;;;;;;4.75;4.35;;;;;;;;;;4480585;28;20066;-59
2023/02/23 02:49:06;;;;;;;4.50;4.10;;;;;;;;;;4482705;28;20093;-58
2023/02/23 02:51:28;;;;;;;0.50;0.50;;;;;;;;;;4469295;28;20062;-58
2023/02/23 02:53:57;;;;;;;4.20;3.80;;;;;;;;;;4481401;28;20515;-59
2023/02/23 02:56:08;;;;;;;4.10;3.75;;;;;;;;;;4482224;28;20498;-58
2023/02/23 02:58:21;;;;;;;0.55;0.47;;;;;;;;;;4479845;28;20130;-58
2023/02/23 04:17:37;;;;;;;4.10;3.75;;;;;;;;;;4479790;28;20030;-58
2023/02/23 04:19:51;;;;;;;0.45;0.45;;;;;;;;;;4476498;28;20043;-58
2023/02/23 04:22:02;;;;;;;0.40;0.40;;;;;;;;;;4481146;28;20629;-58
2023/02/23 04:24:12;;;;;;;0.40;0.40;;;;;;;;;;4488451;28;20038;-59
2023/02/23 04:26:23;;;;;;;0.60;0.50;;;;;;;;;;4480156;28;20030;-58
2023/02/23 04:28:33;;;;;;;0.45;0.45;;;;;;;;;;4481065;28;20053;-59
2023/02/23 04:30:43;;;;;;;0.55;0.52;;;;;;;;;;4477899;28;20597;-58
2023/02/23 04:32:55;;;;;;;0.45;0.45;;;;;;;;;;4481422;28;20146;-59
2023/02/23 04:35:06;;;;;;;0.68;0.50;;;;;;;;;;4479620;28;20240;-58
2023/02/23 04:37:16;;;;;;;0.47;0.47;;;;;;;;;;4480343;28;20038;-59
2023/02/23 04:39:26;;;;;;;0.50;0.50;;;;;;;;;;4494671;28;20415;-58
2023/02/23 04:41:37;;;;;;;0.30;0.30;;;;;;;;;;4478757;28;20084;-59
2023/02/23 04:43:47;;;;;;;0.40;0.40;;;;;;;;;;4482031;28;20529;-59
2023/02/23 04:45:57;;;;;;;0.43;0.43;;;;;;;;;;4481851;28;20049;-58
2023/02/23 04:48:08;;;;;;;0.50;0.50;;;;;;;;;;4491120;28;20038;-58
2023/02/23 04:50:18;;;;;;;0.40;0.40;;;;;;;;;;4481015;28;20042;-57
2023/02/23 04:52:28;;;;;;;0.50;0.50;;;;;;;;;;4483338;28;20046;-59
2023/02/23 04:54:39;;;;;;;0.40;0.40;;;;;;;;;;4481897;28;20041;-58
2023/02/23 04:56:49;;;;;;;0.50;0.50;;;;;;;;;;4482890;28;20030;-58
2023/02/23 04:59:00;;;;;;;0.40;0.40;;;;;;;;;;4483238;28;20030;-58
2023/02/23 05:01:10;;;;;;;0.40;0.40;;;;;;;;;;4483855;28;20038;-59
2023/02/23 05:03:20;;;;;;;0.50;0.50;;;;;;;;;;4483740;28;20043;-58
2023/02/23 05:05:31;;;;;;;0.40;0.40;;;;;;;;;;4493631;28;20155;-58
2023/02/23 05:07:41;;;;;;;0.60;0.50;;;;;;;;;;4489245;28;20526;-59
2023/02/23 05:09:51;;;;;;;0.35;0.35;;;;;;;;;;4480049;28;20049;-58
2023/02/23 05:12:02;;;;;;;0.60;0.47;;;;;;;;;;4481901;28;20042;-59
2023/02/23 05:14:12;;;;;;;0.40;0.40;;;;;;;;;;4489722;28;20084;-58
2023/02/23 05:16:23;;;;;;;0.30;0.30;;;;;;;;;;4482973;28;20049;-58
2023/02/23 05:18:33;;;;;;;0.40;0.40;;;;;;;;;;4481507;28;20038;-57
2023/02/23 05:20:43;;;;;;;0.30;0.30;;;;;;;;;;4483038;28;20395;-59
2023/02/23 05:22:54;;;;;;;0.40;0.40;;;;;;;;;;4482715;28;20620;-58
2023/02/23 05:25:04;;;;;;;0.45;0.45;;;;;;;;;;4482668;28;20045;-59
2023/02/23 05:27:16;;;;;;;0.40;0.40;;;;;;;;;;4482692;28;20040;-60
2023/02/23 05:29:26;;;;;;;0.50;0.50;;;;;;;;;;4482275;28;20043;-59
2023/02/23 05:31:37;;;;;;;0.60;0.60;;;;;;;;;;4480329;28;20057;-59
2023/02/23 05:33:47;;;;;;;0.60;0.60;;;;;;;;;;4482660;28;20050;-58
2023/02/23 05:35:58;;;;;;;0.55;0.55;;;;;;;;;;4481712;28;20038;-58
2023/02/23 05:38:08;;;;;;;0.50;0.50;;;;;;;;;;4482899;28;20071;-58
2023/02/23 05:40:19;;;;;;;0.57;0.57;;;;;;;;;;4483712;28;20034;-59
2023/02/23 05:42:29;;;;;;;0.40;0.40;;;;;;;;;;4480424;28;20050;-59
2023/02/23 05:44:39;;;;;;;0.40;0.40;;;;;;;;;;4482980;28;20713;-59
2023/02/23 05:46:49;;;;;;;0.30;0.30;;;;;;;;;;4483249;28;20046;-58
2023/02/23 05:49:00;;;;;;;0.30;0.30;;;;;;;;;;4480764;28;20072;-58
2023/02/23 05:51:12;;;;;;;0.40;0.40;;;;;;;;;;4481936;28;20066;-59
2023/02/23 05:53:22;;;;;;;0.50;0.50;;;;;;;;;;4482711;28;20035;-59
2023/02/23 05:55:35;;;;;;;0.38;0.38;;;;;;;;;;4481038;28;20035;-57
2023/02/23 05:57:45;;;;;;;0.60;0.47;;;;;;;;;;4480445;28;20348;-57
2023/02/23 05:59:55;;;;;;;0.30;0.30;;;;;;;;;;4481660;28;20045;-58
2023/02/23 06:02:06;;;;;;;0.30;0.30;;;;;;;;;;4480017;28;20085;-59
2023/02/23 06:04:16;;;;;;;0.30;0.30;;;;;;;;;;4481106;28;20031;-58
2023/02/23 06:06:27;;;;;;;0.32;0.32;;;;;;;;;;4481040;28;20088;-59
2023/02/23 06:08:37;;;;;;;0.30;0.30;;;;;;;;;;4478528;28;20043;-58
2023/02/23 06:10:47;;;;;;;0.30;0.30;;;;;;;;;;4480079;28;20722;-59
2023/02/23 06:12:58;;;;;;;0.40;0.40;;;;;;;;;;4480749;28;20039;-58
2023/02/23 06:15:08;;;;;;;0.68;0.40;;;;;;;;;;4479772;28;20042;-59
2023/02/23 06:17:18;;;;;;;0.30;0.30;;;;;;;;;;4479073;28;20046;-58
2023/02/23 06:19:30;;;;;;;0.32;0.32;;;;;;;;;;4480402;28;20053;-59
2023/02/23 06:21:40;;;;;;;0.40;0.40;;;;;;;;;;4477581;28;20034;-59
2023/02/23 06:23:52;;;;;;;0.30;0.30;;;;;;;;;;4479801;28;20038;-58
2023/02/23 06:26:02;;;;;;;0.30;0.30;;;;;;;;;;4481904;28;20031;-58
2023/02/23 06:28:12;;;;;;;0.47;0.47;;;;;;;;;;4480626;28;20208;-59
2023/02/23 06:30:23;;;;;;;0.50;0.50;;;;;;;;;;4481908;28;20050;-58
2023/02/23 06:32:33;;;;;;;0.50;0.40;;;;;;;;;;4481754;28;20076;-58
2023/02/23 06:34:46;;;;;;;0.38;0.38;;;;;;;;;;4494465;28;20649;-60
2023/02/23 06:36:56;;;;;;;0.30;0.30;;;;;;;;;;4464752;28;20039;-60
2023/02/23 06:39:08;;;;;;;0.30;0.30;;;;;;;;;;4479896;28;20044;-60
2023/02/23 06:41:19;;;;;;;0.30;0.30;;;;;;;;;;4479613;28;20046;-59
2023/02/23 06:43:29;;;;;;;0.40;0.40;;;;;;;;;;4482727;28;20041;-60
2023/02/23 06:45:40;;;;;;;0.30;0.30;;;;;;;;;;4480538;28;20046;-59
2023/02/23 06:47:51;;;;;;;0.30;0.30;;;;;;;;;;4480419;28;20030;-60
2023/02/23 06:50:02;;;;;;;0.20;0.20;;;;;;;;;;4481069;28;20092;-60
2023/02/23 06:52:13;;;;;;;0.30;0.30;;;;;;;;;;4479200;28;20105;-59
2023/02/23 06:54:23;;;;;;;0.40;0.40;;;;;;;;;;4481904;28;20038;-60
2023/02/23 06:56:33;;;;;;;0.30;0.30;;;;;;;;;;4482301;28;20039;-60
2023/02/23 06:58:44;;;;;;;0.28;0.28;;;;;;;;;;4490668;28;20673;-60
2023/02/23 07:00:55;;;;;;;0.30;0.30;;;;;;;;;;4496485;28;20459;-60
2023/02/23 07:03:06;;;;;;;0.30;0.30;;;;;;;;;;4478414;28;20034;-61
2023/02/23 07:05:16;;;;;;;0.20;0.20;;;;;;;;;;4478048;28;20034;-61
2023/02/23 07:07:26;;;;;;;0.30;0.30;;;;;;;;;;4478722;28;20069;-60
2023/02/23 07:09:41;;;;;;;0.30;0.30;;;;;;;;;;4479481;28;20042;-61
2023/02/23 07:11:52;;;;;;;0.40;0.40;;;;;;;;;;4479215;28;20026;-61
2023/02/23 07:14:02;;;;;;;0.40;0.40;;;;;;;;;;4480082;28;20031;-60
2023/02/23 07:16:15;;;;;;;0.30;0.30;;;;;;;;;;4479287;28;20264;-60
2023/02/23 07:18:25;;;;;;;0.40;0.40;;;;;;;;;;4479655;28;20045;-60
2023/02/23 07:20:35;;;;;;;0.47;0.47;;;;;;;;;;4476918;28;20050;-60
2023/02/23 07:22:46;;;;;;;0.47;0.43;;;;;;;;;;4479714;28;20452;-60
2023/02/23 07:24:56;;;;;;;0.75;0.40;;;;;;;;;;4477372;28;20042;-60
2023/02/23 07:27:07;;;;;;;0.52;0.50;;;;;;;;;;4479344;28;20618;-60
2023/02/23 07:29:18;;;;;;;0.50;0.40;;;;;;;;;;4477955;28;20086;-60
2023/02/23 07:31:28;;;;;;;0.47;0.47;;;;;;;;;;4479561;28;20115;-59
2023/02/23 07:33:38;;;;;;;1.98;0.50;;;;;;;;;;4472117;28;20682;-59
2023/02/23 07:35:49;;;;;;;0.50;0.50;;;;;;;;;;4480989;28;20113;-60
2023/02/23 07:38:00;;;;;;;0.50;0.50;;;;;;;;;;4479844;28;20997;-60
2023/02/23 07:40:10;;;;;;;0.40;0.40;;;;;;;;;;4478740;28;20038;-60
2023/02/23 07:42:21;;;;;;;0.57;0.40;;;;;;;;;;4477935;28;20045;-60
2023/02/23 07:44:31;;;;;;;0.40;0.40;;;;;;;;;;4479089;28;20038;-60
2023/02/23 07:46:41;;;;;;;0.43;0.43;;;;;;;;;;4476806;28;20328;-60
2023/02/23 07:48:52;;;;;;;0.50;0.50;;;;;;;;;;4479867;28;20037;-60
2023/02/23 07:51:07;;;;;;;0.40;0.40;;;;;;;;;;4478125;28;20045;-60
2023/02/23 07:53:17;;;;;;;0.47;0.47;;;;;;;;;;4481007;28;20471;-60
2023/02/23 07:55:28;;;;;;;0.40;0.40;;;;;;;;;;4494634;28;20034;-62
2023/02/23 07:57:38;;;;;;;0.40;0.40;;;;;;;;;;4478760;28;20049;-59
2023/02/23 07:59:49;;;;;;;1.27;0.50;;;;;;;;;;4477639;28;20231;-60
2023/02/23 08:02:00;;;;;;;0.85;0.50;;;;;;;;;;4477291;28;20455;-60
2023/02/23 08:04:10;;;;;;;0.50;0.50;;;;;;;;;;4475978;28;20046;-60
2023/02/23 08:06:20;;;;;;;0.57;0.47;;;;;;;;;;4477218;28;20038;-60
2023/02/23 08:08:31;;;;;;;0.50;0.50;;;;;;;;;;4474575;28;20131;-59
2023/02/23 08:10:41;;;;;;;0.60;0.40;;;;;;;;;;4479635;28;20121;-60
2023/02/23 08:12:52;;;;;;;0.70;0.47;;;;;;;;;;4479703;28;20221;-60
2023/02/23 08:15:04;;;;;;;0.40;0.40;;;;;;;;;;4479268;28;20542;-60
2023/02/23 08:17:14;;;;;;;0.43;0.40;;;;;;;;;;4478148;28;21256;-60
2023/02/23 08:19:25;;;;;;;0.40;0.40;;;;;;;;;;4478748;28;20041;-60
2023/02/23 08:21:35;;;;;;;0.47;0.47;;;;;;;;;;4477503;28;20043;-60
2023/02/23 08:23:45;;;;;;;0.50;0.50;;;;;;;;;;4480771;28;20311;-60
2023/02/23 08:25:56;;;;;;;0.52;0.40;;;;;;;;;;4478806;28;20105;-59
2023/02/23 08:28:06;;;;;;;0.65;0.40;;;;;;;;;;4478735;28;20030;-60
2023/02/23 08:30:18;;;;;;;0.40;0.40;;;;;;;;;;4478506;28;20111;-60
2023/02/23 08:32:37;;;;;;;0.50;0.40;;;;;;;;;;4478379;28;20065;-60
2023/02/23 08:34:47;;;;;;;0.50;0.50;;;;;;;;;;4479988;28;20113;-60
2023/02/23 08:36:58;;;;;;;0.40;0.40;;;;;;;;;;4478788;28;20030;-60
2023/02/23 08:39:10;;;;;;;0.70;0.50;;;;;;;;;;4479074;28;20081;-60
2023/02/23 08:41:21;;;;;;;0.40;0.40;;;;;;;;;;4477338;28;20629;-60
2023/02/23 08:43:31;;;;;;;0.60;0.40;;;;;;;;;;4477161;28;20084;-60
2023/02/23 08:45:41;;;;;;;0.85;0.50;;;;;;;;;;4478675;28;20038;-60
2023/02/23 08:47:53;;;;;;;0.40;0.40;;;;;;;;;;4477522;28;20035;-60
2023/02/23 08:50:04;;;;;;;0.47;0.40;;;;;;;;;;4478191;28;20031;-60
2023/02/23 08:52:15;;;;;;;1.17;0.40;;;;;;;;;;4480323;28;20116;-60
2023/02/23 08:54:25;;;;;;;1.55;0.50;;;;;;;;;;4479940;28;20694;-60
2023/02/23 08:56:36;;;;;;;0.40;0.40;;;;;;;;;;4480888;28;20034;-60
2023/02/23 08:58:46;;;;;;;0.50;0.50;;;;;;;;;;4489229;28;20070;-60
2023/02/23 09:00:57;;;;;;;0.45;0.45;;;;;;;;;;4479830;28;20574;-60
2023/02/23 09:03:07;;;;;;;0.40;0.30;;;;;;;;;;4478812;28;20062;-59
2023/02/23 09:05:17;;;;;;;7.00;6.30;;;;;;;;;;4480932;28;20157;-60
2023/02/23 09:07:28;;;;;;;7.45;6.75;;;;;;;;;;4488502;28;20070;-60
2023/02/23 09:09:38;;;;;;;7.15;6.53;;;;;;;;;;4478622;28;20141;-60
2023/02/23 09:11:48;;;;;;;7.43;6.63;;;;;;;;;;4478150;28;20038;-60
2023/02/23 09:13:59;;;;;;;7.35;6.65;;;;;;;;;;4475688;28;20108;-59
2023/02/23 09:16:09;;;;;;;7.53;6.78;;;;;;;;;;4478379;28;20112;-59
2023/02/23 09:18:19;;;;;;;7.85;7.05;;;;;;;;;;4477494;28;20026;-61
2023/02/23 09:20:30;;;;;;;8.60;7.80;;;;;;;;;;4479383;28;20043;-64
2023/02/23 09:22:44;;;;;;;8.27;7.47;;;;;;;;;;4478492;28;20033;-62
2023/02/23 09:24:54;;;;;;;7.70;7.00;;;;;;;;;;4478655;28;21865;-60
2023/02/23 09:27:06;;;;;;;7.90;7.15;;;;;;;;;;4478574;28;20089;-60
2023/02/23 09:29:16;;;;;;;8.40;7.60;;;;;;;;;;4480374;28;20035;-59
2023/02/23 09:31:26;;;;;;;7.60;6.90;;;;;;;;;;4480790;28;20036;-60
2023/02/23 09:33:37;;;;;;;7.97;7.18;;;;;;;;;;4481117;28;20081;-60
2023/02/23 09:35:47;;;;;;;7.57;6.88;;;;;;;;;;4481484;28;20039;-60
2023/02/23 09:37:58;;;;;;;7.90;7.10;;;;;;;;;;4479910;28;20434;-60
2023/02/23 09:40:09;;;;;;;7.35;6.65;;;;;;;;;;4479735;28;20064;-60
2023/02/23 09:42:33;;;;;;;7.18;6.47;;;;;;;;;;4483650;28;20070;-60
2023/02/23 09:44:53;;;;;;;7.43;6.72;;;;;;;;;;4482151;28;20054;-60
2023/02/23 09:47:06;;;;;;;7.65;6.95;;;;;;;;;;4480038;28;20038;-60
2023/02/23 09:49:18;;;;;;;7.47;6.78;;;;;;;;;;4479396;28;20069;-60
2023/02/23 09:51:31;;;;;;;7.57;6.88;;;;;;;;;;4479796;28;20053;-60
2023/02/23 09:53:44;;;;;;;7.28;6.57;;;;;;;;;;4474326;28;20042;-60
2023/02/23 09:55:57;;;;;;;7.05;6.45;;;;;;;;;;4481134;28;20593;-60
2023/02/23 09:58:11;;;;;;;7.18;6.47;;;;;;;;;;4481744;28;20097;-60
2023/02/23 10:00:28;;;;;;;6.70;6.10;;;;;;;;;;4480499;28;20038;-60
2023/02/23 10:02:50;;;;;;;7.20;6.60;;;;;;;;;;4480244;28;21045;-60
2023/02/23 10:05:02;;;;;;;7.28;6.60;;;;;;;;;;4478167;28;20606;-60
2023/02/23 10:07:15;;;;;;;7.22;6.53;;;;;;;;;;4478280;28;20026;-60
2023/02/23 10:09:31;;;;;;;7.10;6.40;;;;;;;;;;4478316;28;20043;-60
2023/02/23 10:11:51;;;;;;;6.85;6.25;;;;;;;;;;4489347;28;20936;-60
2023/02/23 10:14:13;;;;;;;7.18;6.57;;;;;;;;;;4481258;28;20038;-60
2023/02/23 10:16:44;;;;;;;7.38;6.68;;;;;;;;;;4479919;28;20045;-61
2023/02/23 10:19:02;;;;;;;7.63;6.93;;;;;;;;;;4477928;28;20134;-60
2023/02/23 10:21:32;;;;;;;7.05;6.45;;;;;;;;;;4489015;28;20035;-60
2023/02/23 10:24:00;;;;;;;6.93;6.32;;;;;;;;;;4480911;28;20053;-60
2023/02/23 10:26:15;;;;;;;7.30;6.60;;;;;;;;;;4483235;28;20668;-60
2023/02/23 10:28:25;;;;;;;6.80;6.20;;;;;;;;;;4482258;28;20529;-60
2023/02/23 10:30:36;;;;;;;6.90;6.30;;;;;;;;;;4482523;28;20045;-60
2023/02/23 10:33:15;;;;;;;6.22;5.70;;;;;;;;;;4478627;28;20133;-60
2023/02/23 10:35:28;;;;;;;6.15;5.65;;;;;;;;;;4478860;28;20050;-60
2023/02/23 10:37:38;;;;;;;6.45;5.85;;;;;;;;;;4481139;28;20609;-60
2023/02/23 10:39:50;;;;;;;6.13;5.53;;;;;;;;;;4479812;28;20058;-60
2023/02/23 10:42:05;;;;;;;6.85;6.25;;;;;;;;;;4481923;28;20642;-61
2023/02/23 10:44:20;;;;;;;7.05;6.45;;;;;;;;;;4480192;28;21067;-60
2023/02/23 10:46:34;;;;;;;7.68;6.97;;;;;;;;;;4480260;28;20870;-60
2023/02/23 10:48:46;;;;;;;7.97;7.20;;;;;;;;;;4479369;28;20645;-60
2023/02/23 10:51:01;;;;;;;8.00;7.20;;;;;;;;;;4483613;28;20078;-60
2023/02/23 10:53:15;;;;;;;7.78;7.05;;;;;;;;;;4480682;28;20778;-60
2023/02/23 10:55:27;;;;;;;7.28;6.57;;;;;;;;;;4478451;28;21293;-60
2023/02/23 10:57:38;;;;;;;7.38;6.68;;;;;;;;;;4455454;28;20039;-59
2023/02/23 11:00:06;;;;;;;8.10;7.30;;;;;;;;;;4480580;28;20047;-60
2023/02/23 11:02:24;;;;;;;7.57;6.53;;;;;;;;;;4481999;28;20042;-60
2023/02/23 11:04:34;;;;;;;7.32;6.63;;;;;;;;;;4480497;28;20030;-59
2023/02/23 11:06:44;;;;;;;8.00;7.25;;;;;;;;;;4480560;28;20046;-60
2023/02/23 11:08:55;;;;;;;8.15;7.35;;;;;;;;;;4480326;28;20081;-60
2023/02/23 11:11:05;;;;;;;8.40;7.60;;;;;;;;;;4481096;28;20168;-60
2023/02/23 11:13:24;;;;;;;8.10;7.30;;;;;;;;;;4479475;28;20041;-60
2023/02/23 11:15:42;;;;;;;8.15;7.35;;;;;;;;;;4481337;28;20046;-60
2023/02/23 11:17:57;;;;;;;8.85;7.95;;;;;;;;;;4477342;28;20504;-59
2023/02/23 11:20:20;;;;;;;8.60;7.70;;;;;;;;;;4476378;28;20030;-60
2023/02/23 11:22:32;;;;;;;8.25;7.38;;;;;;;;;;4480721;28;20069;-60
2023/02/23 11:24:42;;;;;;;8.82;7.93;;;;;;;;;;4493903;28;20038;-60
2023/02/23 11:26:56;;;;;;;8.45;7.65;;;;;;;;;;4479454;28;20622;-60
2023/02/23 11:29:16;;;;;;;8.70;7.78;;;;;;;;;;4481077;28;20029;-60
2023/02/23 11:31:31;;;;;;;8.18;7.38;;;;;;;;;;4489857;28;21033;-60
2023/02/23 11:33:42;;;;;;;8.80;7.90;;;;;;;;;;4480986;28;20300;-60
2023/02/23 11:35:59;;;;;;;8.23;7.43;;;;;;;;;;4496084;28;20026;-58
2023/02/23 11:38:23;;;;;;;9.00;8.10;;;;;;;;;;4479101;28;20048;-59
2023/02/23 11:40:33;;;;;;;9.15;8.25;;;;;;;;;;4480179;28;20035;-60
2023/02/23 11:43:06;;;;;;;9.13;8.23;;;;;;;;;;4479807;28;20038;-60
2023/02/23 11:45:19;;;;;;;9.30;8.30;;;;;;;;;;4481583;28;20042;-60
2023/02/23 11:47:30;;;;;;;8.40;7.60;;;;;;;;;;4479968;28;21190;-60
2023/02/23 11:49:43;;;;;;;8.18;7.40;;;;;;;;;;4480272;28;20724;-60
2023/02/23 11:51:53;;;;;;;8.20;7.40;;;;;;;;;;4476233;28;20034;-60
2023/02/23 11:54:04;;;;;;;8.88;7.85;;;;;;;;;;4476731;28;20038;-60
2023/02/23 11:56:18;;;;;;;8.38;7.50;;;;;;;;;;4478307;28;20061;-60
2023/02/23 11:58:48;;;;;;;8.40;7.60;;;;;;;;;;4481644;28;20045;-60
2023/02/23 12:01:00;;;;;;;7.78;6.97;;;;;;;;;;4479799;28;20043;-60
2023/02/23 12:03:16;;;;;;;7.65;6.85;;;;;;;;;;4478342;28;20053;-60
2023/02/23 12:05:28;;;;;;;7.63;6.70;;;;;;;;;;4480102;28;20169;-60
2023/02/23 12:07:42;;;;;;;6.93;6.30;;;;;;;;;;4479154;28;20479;-60
2023/02/23 12:10:15;;;;;;;7.07;6.38;;;;;;;;;;4477581;28;20061;-59
2023/02/23 12:12:27;;;;;;;7.10;6.40;;;;;;;;;;4467802;28;20582;-60
2023/02/23 12:14:41;;;;;;;6.82;6.13;;;;;;;;;;4479892;28;20057;-60
2023/02/23 12:16:54;;;;;;;6.90;6.20;;;;;;;;;;4481950;28;20042;-60
2023/02/23 12:19:08;;;;;;;7.28;6.57;;;;;;;;;;4481225;28;20027;-59
2023/02/23 12:21:18;;;;;;;7.07;6.38;;;;;;;;;;4478710;28;20075;-60
2023/02/23 12:23:32;;;;;;;7.15;6.45;;;;;;;;;;4479744;28;20039;-60
2023/02/23 12:25:49;;;;;;;7.03;6.32;;;;;;;;;;4478967;28;20100;-60
2023/02/23 12:28:00;;;;;;;6.63;5.82;;;;;;;;;;4479804;28;20971;-60
2023/02/23 12:30:13;;;;;;;6.25;5.65;;;;;;;;;;4478584;28;20038;-60
2023/02/23 12:32:27;;;;;;;7.15;6.45;;;;;;;;;;4475849;28;20027;-59
2023/02/23 12:34:43;;;;;;;6.65;5.95;;;;;;;;;;4479555;28;20042;-60
2023/02/23 12:37:06;;;;;;;6.05;5.45;;;;;;;;;;4479083;28;20487;-60
2023/02/23 12:39:37;;;;;;;5.70;5.10;;;;;;;;;;4475759;28;20050;-60
2023/02/23 12:41:57;;;;;;;5.65;5.13;;;;;;;;;;4481402;28;20026;-60
2023/02/23 12:44:26;;;;;;;5.82;5.22;;;;;;;;;;4487720;28;20046;-59
2023/02/23 12:46:42;;;;;;;6.03;5.43;;;;;;;;;;4478859;28;20045;-60
2023/02/23 12:49:25;;;;;;;5.32;4.82;;;;;;;;;;4478605;28;20043;-60
2023/02/23 12:51:38;;;;;;;6.00;5.40;;;;;;;;;;4451640;28;20045;-60
2023/02/23 12:53:48;;;;;;;6.10;5.50;;;;;;;;;;4481153;28;20055;-60
2023/02/23 12:56:05;;;;;;;6.32;5.72;;;;;;;;;;4481846;28;20125;-60
2023/02/23 12:58:39;;;;;;;5.65;5.15;;;;;;;;;;4481435;28;20045;-60
2023/02/23 13:00:49;;;;;;;6.07;5.47;;;;;;;;;;4479519;28;21120;-60
2023/02/23 13:03:01;;;;;;;6.07;5.47;;;;;;;;;;4481048;28;20046;-60
2023/02/23 13:05:29;;;;;;;5.95;5.35;;;;;;;;;;4478957;28;20725;-60
2023/02/23 13:08:01;;;;;;;6.20;5.60;;;;;;;;;;4482049;28;20120;-60
2023/02/23 13:10:12;;;;;;;5.68;5.18;;;;;;;;;;4481068;28;20893;-60
2023/02/23 13:12:25;;;;;;;5.80;5.22;;;;;;;;;;4481419;28;20030;-60
2023/02/23 13:14:46;;;;;;;5.45;4.95;;;;;;;;;;4480920;28;20035;-60
2023/02/23 13:17:00;;;;;;;5.25;4.75;;;;;;;;;;4479955;28;20049;-60
2023/02/23 13:19:22;;;;;;;5.80;5.25;;;;;;;;;;4483270;28;20665;-60
2023/02/23 13:21:38;;;;;;;6.35;5.70;;;;;;;;;;4474737;28;20660;-60
2023/02/23 13:23:59;;;;;;;6.90;6.20;;;;;;;;;;4479193;28;20050;-60
2023/02/23 13:26:11;;;;;;;6.75;6.03;;;;;;;;;;4480539;28;20043;-59
2023/02/23 13:28:37;;;;;;;6.70;6.03;;;;;;;;;;4477576;28;20125;-60
2023/02/23 13:30:47;;;;;;;6.88;6.10;;;;;;;;;;4489707;28;20775;-60
2023/02/23 13:33:01;;;;;;;6.63;6.03;;;;;;;;;;4480083;28;20035;-60
2023/02/23 13:35:16;;;;;;;6.85;6.13;;;;;;;;;;4477502;28;20638;-60
2023/02/23 13:37:44;;;;;;;7.68;6.43;;;;;;;;;;4478909;28;20057;-60
2023/02/23 13:40:10;;;;;;;7.65;6.78;;;;;;;;;;4483442;28;21293;-60
2023/02/23 13:42:31;;;;;;;7.28;6.50;;;;;;;;;;4480653;28;20050;-60
2023/02/23 13:44:52;;;;;;;7.38;6.60;;;;;;;;;;4481168;28;20057;-60
2023/02/23 13:47:13;;;;;;;7.53;6.72;;;;;;;;;;4479668;28;20035;-61
2023/02/23 13:49:33;;;;;;;7.70;6.90;;;;;;;;;;4481189;28;20516;-61
2023/02/23 13:51:49;;;;;;;8.07;7.28;;;;;;;;;;4480412;28;20443;-61
2023/02/23 13:54:02;;;;;;;8.40;7.50;;;;;;;;;;4480309;28;20645;-60
2023/02/23 13:56:17;;;;;;;9.15;7.07;;;;;;;;;;4480355;28;20468;-63
2023/02/23 13:58:30;;;;;;;7.80;6.53;;;;;;;;;;4480989;28;20579;-60
2023/02/23 14:00:41;;;;;;;6.40;5.53;;;;;;;;;;4481279;28;20554;-60
2023/02/23 14:02:52;;;;;;;6.53;5.65;;;;;;;;;;4481557;28;20106;-60
2023/02/23 14:05:17;;;;;;;6.97;6.03;;;;;;;;;;4479947;28;20077;-60
2023/02/23 14:07:29;;;;;;;7.70;6.65;;;;;;;;;;4478018;28;20050;-60
2023/02/23 14:09:42;;;;;;;7.25;6.35;;;;;;;;;;4482744;28;20034;-60
2023/02/23 14:12:18;;;;;;;8.10;6.95;;;;;;;;;;4483169;28;20618;-60
2023/02/23 14:14:31;;;;;;;8.70;7.03;;;;;;;;;;4471473;28;20626;-60
2023/02/23 14:16:43;;;;;;;7.78;6.63;;;;;;;;;;4482134;28;20054;-60
2023/02/23 14:18:53;;;;;;;8.45;6.78;;;;;;;;;;4480675;28;20048;-60
2023/02/23 14:21:03;;;;;;;0.98;0.90;;;;;;;;;;4480862;28;20029;-61
2023/02/23 14:23:20;;;;;;;0.80;0.80;;;;;;;;;;4479183;28;20594;-61
2023/02/23 14:25:30;;;;;;;0.60;0.60;;;;;;;;;;4481617;28;20050;-61
2023/02/23 14:27:44;;;;;;;0.80;0.80;;;;;;;;;;4482667;28;20034;-61
2023/02/23 14:30:09;;;;;;;0.80;0.80;;;;;;;;;;4481827;28;20607;-61
2023/02/23 14:32:19;;;;;;;2.05;1.85;;;;;;;;;;4479785;28;20062;-60
2023/02/23 14:34:42;;;;;;;4.93;4.28;;;;;;;;;;4481408;28;20117;-61
2023/02/23 14:36:55;;;;;;;4.03;3.53;;;;;;;;;;4482842;28;20084;-60
2023/02/23 14:39:13;;;;;;;4.10;3.20;;;;;;;;;;4480988;28;20054;-60